sensor_id;sensor_type;location;lat;lon;timestamp;pressure;altitude;pressure_sealevel;temperature;humidity
6395;BME280;3230;42.588;23.358;2023-04-01T00:00:58;90222.88;;;11.99;50.99
6395;BME280;3230;42.588;23.358;2023-04-01T00:03:24;90208.97;;;11.98;50.30
6395;BME280;3230;42.588;23.358;2023-04-01T00:05:50;90207.94;;;11.86;51.24
6395;BME280;3230;42.588;23.358;2023-04-01T00:08:16;90216.47;;;11.91;51.67
6395;BME280;3230;42.588;23.358;2023-04-01T00:10:42;90209.06;;;11.93;52.79
6395;BME280;3230;42.588;23.358;2023-04-01T00:13:12;90217.59;;;11.76;54.68
6395;BME280;3230;42.588;23.358;2023-04-01T00:15:38;90220.97;;;11.68;55.15
6395;BME280;3230;42.588;23.358;2023-04-01T00:18:03;90210.31;;;11.64;54.48
6395;BME280;3230;42.588;23.358;2023-04-01T00:20:30;90209.81;;;11.62;54.17
6395;BME280;3230;42.588;23.358;2023-04-01T00:22:55;90214.31;;;11.62;56.41
6395;BME280;3230;42.588;23.358;2023-04-01T00:25:22;90210.41;;;11.59;57.30
6395;BME280;3230;42.588;23.358;2023-04-01T00:27:47;90215.38;;;11.61;56.23
6395;BME280;3230;42.588;23.358;2023-04-01T00:30:13;90208.94;;;11.67;55.02
6395;BME280;3230;42.588;23.358;2023-04-01T00:32:39;90210.34;;;11.50;56.79
6395;BME280;3230;42.588;23.358;2023-04-01T00:35:05;90215.78;;;11.54;58.22
6395;BME280;3230;42.588;23.358;2023-04-01T00:37:30;90217.63;;;11.31;61.02
6395;BME280;3230;42.588;23.358;2023-04-01T00:39:56;90214.88;;;11.13;63.22
6395;BME280;3230;42.588;23.358;2023-04-01T00:42:22;90205.94;;;11.14;63.45
6395;BME280;3230;42.588;23.358;2023-04-01T00:44:52;90193.75;;;10.96;64.67
6395;BME280;3230;42.588;23.358;2023-04-01T00:47:18;90194.72;;;11.23;61.74
6395;BME280;3230;42.588;23.358;2023-04-01T00:49:47;90195.56;;;11.09;65.51
6395;BME280;3230;42.588;23.358;2023-04-01T00:52:16;90181.38;;;10.87;65.64
6395;BME280;3230;42.588;23.358;2023-04-01T00:54:45;90193.72;;;10.73;65.23
6395;BME280;3230;42.588;23.358;2023-04-01T00:57:16;90179.31;;;10.84;59.16
6395;BME280;3230;42.588;23.358;2023-04-01T00:59:46;90171.72;;;10.97;57.96
6395;BME280;3230;42.588;23.358;2023-04-01T01:02:15;90181.06;;;11.12;54.34
6395;BME280;3230;42.588;23.358;2023-04-01T01:04:41;90171.72;;;11.42;52.50
6395;BME280;3230;42.588;23.358;2023-04-01T01:10:31;90147.88;;;11.52;52.07
6395;BME280;3230;42.588;23.358;2023-04-01T01:16:20;90143.13;;;11.55;52.34
6395;BME280;3230;42.588;23.358;2023-04-01T01:19:00;90135.00;;;11.42;52.46
6395;BME280;3230;42.588;23.358;2023-04-01T01:33:17;90149.63;;;10.52;65.50
6395;BME280;3230;42.588;23.358;2023-04-01T01:38:17;90143.88;;;10.50;68.08
6395;BME280;3230;42.588;23.358;2023-04-01T01:40:47;90145.06;;;10.44;65.80
6395;BME280;3230;42.588;23.358;2023-04-01T01:43:16;90133.03;;;10.43;66.75
6395;BME280;3230;42.588;23.358;2023-04-01T01:45:47;90140.13;;;10.43;67.47
6395;BME280;3230;42.588;23.358;2023-04-01T01:48:14;90135.34;;;10.31;66.10
6395;BME280;3230;42.588;23.358;2023-04-01T01:50:41;90134.97;;;10.37;66.80
6395;BME280;3230;42.588;23.358;2023-04-01T01:53:10;90113.97;;;10.65;59.85
6395;BME280;3230;42.588;23.358;2023-04-01T01:55:38;90115.44;;;10.94;51.63
6395;BME280;3230;42.588;23.358;2023-04-01T01:58:25;90124.16;;;10.90;57.03
6395;BME280;3230;42.588;23.358;2023-04-01T02:00:57;90121.31;;;10.77;55.49
6395;BME280;3230;42.588;23.358;2023-04-01T02:03:27;90108.50;;;10.98;53.22
6395;BME280;3230;42.588;23.358;2023-04-01T02:05:56;90102.16;;;11.45;48.71
6395;BME280;3230;42.588;23.358;2023-04-01T02:08:28;90114.53;;;11.53;50.03
6395;BME280;3230;42.588;23.358;2023-04-01T02:11:00;90111.91;;;11.53;50.37
6395;BME280;3230;42.588;23.358;2023-04-01T02:14:05;90104.50;;;11.46;49.91
6395;BME280;3230;42.588;23.358;2023-04-01T02:19:20;90099.59;;;11.54;49.73
6395;BME280;3230;42.588;23.358;2023-04-01T02:21:54;90095.72;;;11.51;49.78
6395;BME280;3230;42.588;23.358;2023-04-01T02:24:21;90082.78;;;11.55;48.45
6395;BME280;3230;42.588;23.358;2023-04-01T02:26:50;90090.56;;;11.46;47.42
6395;BME280;3230;42.588;23.358;2023-04-01T02:29:19;90085.28;;;11.37;49.41
6395;BME280;3230;42.588;23.358;2023-04-01T02:31:46;90091.59;;;11.36;50.23
6395;BME280;3230;42.588;23.358;2023-04-01T02:34:12;90085.25;;;11.28;51.23
6395;BME280;3230;42.588;23.358;2023-04-01T02:36:38;90090.50;;;11.28;47.01
6395;BME280;3230;42.588;23.358;2023-04-01T02:39:05;90080.53;;;11.39;46.52
6395;BME280;3230;42.588;23.358;2023-04-01T02:41:30;90088.75;;;11.46;47.67
6395;BME280;3230;42.588;23.358;2023-04-01T02:43:56;90094.00;;;11.46;47.27
6395;BME280;3230;42.588;23.358;2023-04-01T02:46:24;90090.84;;;11.67;44.43
6395;BME280;3230;42.588;23.358;2023-04-01T02:48:49;90100.59;;;11.75;44.41
6395;BME280;3230;42.588;23.358;2023-04-01T02:51:15;90095.78;;;11.68;45.17
6395;BME280;3230;42.588;23.358;2023-04-01T02:53:40;90095.94;;;11.72;44.75
6395;BME280;3230;42.588;23.358;2023-04-01T02:56:06;90109.81;;;11.64;45.53
6395;BME280;3230;42.588;23.358;2023-04-01T02:58:31;90107.44;;;11.85;42.43
6395;BME280;3230;42.588;23.358;2023-04-01T03:00:56;90106.47;;;11.81;43.36
6395;BME280;3230;42.588;23.358;2023-04-01T03:03:22;90117.94;;;11.85;43.78
6395;BME280;3230;42.588;23.358;2023-04-01T03:05:47;90127.59;;;11.98;41.34
6395;BME280;3230;42.588;23.358;2023-04-01T03:08:13;90117.13;;;12.16;40.97
6395;BME280;3230;42.588;23.358;2023-04-01T03:10:38;90127.38;;;12.35;40.66
6395;BME280;3230;42.588;23.358;2023-04-01T03:13:04;90128.28;;;12.30;41.46
6395;BME280;3230;42.588;23.358;2023-04-01T03:15:29;90129.84;;;12.40;40.46
6395;BME280;3230;42.588;23.358;2023-04-01T03:17:55;90120.09;;;12.23;41.62
6395;BME280;3230;42.588;23.358;2023-04-01T03:20:20;90107.53;;;12.11;43.89
6395;BME280;3230;42.588;23.358;2023-04-01T03:22:46;90109.56;;;12.14;42.77
6395;BME280;3230;42.588;23.358;2023-04-01T03:25:11;90109.75;;;12.27;42.29
6395;BME280;3230;42.588;23.358;2023-04-01T03:27:37;90104.63;;;12.22;43.00
6395;BME280;3230;42.588;23.358;2023-04-01T03:30:03;90105.97;;;12.10;44.77
6395;BME280;3230;42.588;23.358;2023-04-01T03:32:29;90102.13;;;12.16;44.54
6395;BME280;3230;42.588;23.358;2023-04-01T03:34:55;90104.13;;;12.02;45.34
6395;BME280;3230;42.588;23.358;2023-04-01T03:37:21;90114.63;;;12.02;46.63
6395;BME280;3230;42.588;23.358;2023-04-01T03:39:46;90103.88;;;11.90;46.91
6395;BME280;3230;42.588;23.358;2023-04-01T03:42:12;90107.28;;;11.90;48.03
6395;BME280;3230;42.588;23.358;2023-04-01T03:44:37;90100.88;;;11.74;47.94
6395;BME280;3230;42.588;23.358;2023-04-01T03:47:02;90101.16;;;11.63;50.45
6395;BME280;3230;42.588;23.358;2023-04-01T03:49:28;90091.44;;;11.64;52.03
6395;BME280;3230;42.588;23.358;2023-04-01T03:51:53;90101.19;;;11.72;50.42
6395;BME280;3230;42.588;23.358;2023-04-01T03:54:19;90098.38;;;11.60;50.11
6395;BME280;3230;42.588;23.358;2023-04-01T03:56:45;90095.09;;;11.54;49.55
6395;BME280;3230;42.588;23.358;2023-04-01T03:59:11;90070.03;;;11.79;47.87
6395;BME280;3230;42.588;23.358;2023-04-01T04:01:36;90056.19;;;11.88;48.85
6395;BME280;3230;42.588;23.358;2023-04-01T04:04:02;90046.13;;;11.90;48.09
6395;BME280;3230;42.588;23.358;2023-04-01T04:06:27;90028.91;;;11.57;50.26
6395;BME280;3230;42.588;23.358;2023-04-01T04:08:53;90029.84;;;11.61;49.99
6395;BME280;3230;42.588;23.358;2023-04-01T04:11:19;90024.88;;;11.51;51.27
6395;BME280;3230;42.588;23.358;2023-04-01T04:13:45;90029.03;;;11.52;51.34
6395;BME280;3230;42.588;23.358;2023-04-01T04:16:13;90029.03;;;11.52;52.34
6395;BME280;3230;42.588;23.358;2023-04-01T04:18:39;90026.38;;;11.43;50.89
6395;BME280;3230;42.588;23.358;2023-04-01T04:21:05;90022.81;;;11.39;52.27
6395;BME280;3230;42.588;23.358;2023-04-01T04:23:31;90011.19;;;11.23;53.19
6395;BME280;3230;42.588;23.358;2023-04-01T04:26:16;90016.41;;;11.23;53.92
6395;BME280;3230;42.588;23.358;2023-04-01T04:28:42;90008.22;;;11.15;54.31
6395;BME280;3230;42.588;23.358;2023-04-01T04:31:08;89997.13;;;11.18;55.07
6395;BME280;3230;42.588;23.358;2023-04-01T04:33:34;89992.47;;;11.15;55.13
6395;BME280;3230;42.588;23.358;2023-04-01T04:36:00;89992.47;;;11.15;54.86
6395;BME280;3230;42.588;23.358;2023-04-01T04:38:25;89985.06;;;11.09;54.40
6395;BME280;3230;42.588;23.358;2023-04-01T04:40:51;89973.69;;;11.13;55.05
6395;BME280;3230;42.588;23.358;2023-04-01T04:43:17;89953.22;;;11.24;53.08
6395;BME280;3230;42.588;23.358;2023-04-01T04:45:43;89952.06;;;11.08;54.23
6395;BME280;3230;42.588;23.358;2023-04-01T04:48:10;89938.53;;;11.23;53.73
6395;BME280;3230;42.588;23.358;2023-04-01T04:50:36;89944.56;;;11.24;52.61
6395;BME280;3230;42.588;23.358;2023-04-01T04:53:02;89936.00;;;11.00;55.65
6395;BME280;3230;42.588;23.358;2023-04-01T04:55:27;89937.53;;;11.01;54.76
6395;BME280;3230;42.588;23.358;2023-04-01T04:57:53;89940.81;;;11.07;51.96
6395;BME280;3230;42.588;23.358;2023-04-01T05:00:18;89919.06;;;11.15;49.93
6395;BME280;3230;42.588;23.358;2023-04-01T05:02:44;89918.50;;;11.36;47.55
6395;BME280;3230;42.588;23.358;2023-04-01T05:05:09;89928.59;;;11.51;46.31
6395;BME280;3230;42.588;23.358;2023-04-01T05:07:35;89931.22;;;11.60;46.46
6395;BME280;3230;42.588;23.358;2023-04-01T05:10:01;89925.69;;;11.62;46.75
6395;BME280;3230;42.588;23.358;2023-04-01T05:12:26;89928.59;;;11.69;45.51
6395;BME280;3230;42.588;23.358;2023-04-01T05:14:51;89930.31;;;11.74;45.38
6395;BME280;3230;42.588;23.358;2023-04-01T05:17:17;89930.00;;;11.66;45.62
6395;BME280;3230;42.588;23.358;2023-04-01T05:19:42;89934.31;;;11.71;46.29
6395;BME280;3230;42.588;23.358;2023-04-01T05:22:08;89924.94;;;11.79;44.90
6395;BME280;3230;42.588;23.358;2023-04-01T05:24:33;89923.53;;;11.81;44.88
6395;BME280;3230;42.588;23.358;2023-04-01T05:26:59;89917.38;;;11.95;44.21
6395;BME280;3230;42.588;23.358;2023-04-01T05:29:25;89900.25;;;11.89;45.19
6395;BME280;3230;42.588;23.358;2023-04-01T05:31:51;89897.31;;;11.90;44.75
6395;BME280;3230;42.588;23.358;2023-04-01T05:34:17;89903.94;;;12.40;44.51
6395;BME280;3230;42.588;23.358;2023-04-01T05:36:43;89904.72;;;13.66;45.09
6395;BME280;3230;42.588;23.358;2023-04-01T05:39:08;89907.59;;;15.03;40.25
6395;BME280;3230;42.588;23.358;2023-04-01T05:41:35;89918.94;;;17.01;35.73
6395;BME280;3230;42.588;23.358;2023-04-01T05:44:01;89913.00;;;18.39;32.82
6395;BME280;3230;42.588;23.358;2023-04-01T05:46:26;89909.00;;;18.88;31.75
6395;BME280;3230;42.588;23.358;2023-04-01T05:48:51;89903.59;;;19.74;30.84
6395;BME280;3230;42.588;23.358;2023-04-01T05:51:17;89906.03;;;20.36;30.89
6395;BME280;3230;42.588;23.358;2023-04-01T05:53:43;89891.38;;;19.69;29.93
6395;BME280;3230;42.588;23.358;2023-04-01T05:56:08;89883.31;;;18.14;32.06
6395;BME280;3230;42.588;23.358;2023-04-01T05:58:37;89882.16;;;17.27;33.13
6395;BME280;3230;42.588;23.358;2023-04-01T06:01:04;89900.78;;;16.02;35.48
6395;BME280;3230;42.588;23.358;2023-04-01T06:03:30;89893.34;;;15.54;36.01
6395;BME280;3230;42.588;23.358;2023-04-01T06:05:56;89880.13;;;15.42;36.65
6395;BME280;3230;42.588;23.358;2023-04-01T06:08:21;89881.78;;;14.63;38.34
6395;BME280;3230;42.588;23.358;2023-04-01T06:16:52;89888.34;;;14.23;39.67
6395;BME280;3230;42.588;23.358;2023-04-01T06:19:45;89870.94;;;14.10;39.16
6395;BME280;3230;42.588;23.358;2023-04-01T06:30:43;89871.28;;;14.42;40.22
6395;BME280;3230;42.588;23.358;2023-04-01T06:33:16;89857.44;;;14.45;39.82
6395;BME280;3230;42.588;23.358;2023-04-01T06:38:40;89830.69;;;13.67;43.39
6395;BME280;3230;42.588;23.358;2023-04-01T06:41:20;89846.94;;;13.69;44.33
6395;BME280;3230;42.588;23.358;2023-04-01T06:49:21;89832.38;;;13.72;44.14
6395;BME280;3230;42.588;23.358;2023-04-01T06:52:06;89845.75;;;14.00;43.39
6395;BME280;3230;42.588;23.358;2023-04-01T06:54:52;89829.22;;;13.79;47.19
6395;BME280;3230;42.588;23.358;2023-04-01T06:59:45;89829.81;;;13.63;42.67
6395;BME280;3230;42.588;23.358;2023-04-01T07:04:59;89833.59;;;13.53;48.41
6395;BME280;3230;42.588;23.358;2023-04-01T07:07:33;89815.47;;;13.73;42.91
6395;BME280;3230;42.588;23.358;2023-04-01T07:10:04;89812.81;;;13.94;41.82
6395;BME280;3230;42.588;23.358;2023-04-01T07:14:58;89816.78;;;14.00;41.77
6395;BME280;3230;42.588;23.358;2023-04-01T07:17:31;89802.19;;;14.24;41.12
6395;BME280;3230;42.588;23.358;2023-04-01T07:20:03;89792.66;;;14.44;40.70
6395;BME280;3230;42.588;23.358;2023-04-01T07:22:34;89792.63;;;14.65;40.28
6395;BME280;3230;42.588;23.358;2023-04-01T07:25:11;89793.72;;;14.77;40.40
6395;BME280;3230;42.588;23.358;2023-04-01T07:27:37;89782.53;;;15.05;38.90
6395;BME280;3230;42.588;23.358;2023-04-01T07:30:06;89795.25;;;15.15;38.71
6395;BME280;3230;42.588;23.358;2023-04-01T07:33:01;89800.88;;;15.13;38.95
6395;BME280;3230;42.588;23.358;2023-04-01T07:40:59;89793.88;;;18.73;33.57
6395;BME280;3230;42.588;23.358;2023-04-01T07:49:07;89816.22;;;23.12;27.19
6395;BME280;3230;42.588;23.358;2023-04-01T07:51:54;89817.38;;;23.11;26.99
6395;BME280;3230;42.588;23.358;2023-04-01T08:00:13;89800.06;;;20.80;28.78
6395;BME280;3230;42.588;23.358;2023-04-01T08:05:39;89799.75;;;20.17;30.71
6395;BME280;3230;42.588;23.358;2023-04-01T08:08:09;89813.59;;;19.99;30.26
6395;BME280;3230;42.588;23.358;2023-04-01T08:10:52;89798.38;;;19.69;30.47
6395;BME280;3230;42.588;23.358;2023-04-01T08:13:45;89805.06;;;20.17;31.05
6395;BME280;3230;42.588;23.358;2023-04-01T08:19:26;89794.09;;;19.07;32.59
6395;BME280;3230;42.588;23.358;2023-04-01T08:21:58;89792.38;;;19.45;31.24
6395;BME280;3230;42.588;23.358;2023-04-01T08:24:45;89791.28;;;20.75;30.29
6395;BME280;3230;42.588;23.358;2023-04-01T08:27:23;89776.34;;;20.67;29.52
6395;BME280;3230;42.588;23.358;2023-04-01T08:30:01;89757.75;;;21.12;29.29
6395;BME280;3230;42.588;23.358;2023-04-01T08:32:33;89750.91;;;21.67;28.36
6395;BME280;3230;42.588;23.358;2023-04-01T08:35:40;89737.94;;;21.58;28.87
6395;BME280;3230;42.588;23.358;2023-04-01T08:38:46;89739.09;;;22.74;27.11
6395;BME280;3230;42.588;23.358;2023-04-01T08:41:35;89743.97;;;24.13;25.27
6395;BME280;3230;42.588;23.358;2023-04-01T08:52:37;89717.81;;;25.97;23.80
6395;BME280;3230;42.588;23.358;2023-04-01T08:55:27;89719.25;;;26.98;22.42
6395;BME280;3230;42.588;23.358;2023-04-01T09:00:32;89734.03;;;27.37;21.70
6395;BME280;3230;42.588;23.358;2023-04-01T09:11:16;89712.63;;;22.15;27.10
6395;BME280;3230;42.588;23.358;2023-04-01T09:13:51;89720.69;;;21.52;27.46
6395;BME280;3230;42.588;23.358;2023-04-01T09:16:32;89718.50;;;21.05;28.71
6395;BME280;3230;42.588;23.358;2023-04-01T09:22:00;89713.28;;;20.71;28.87
6395;BME280;3230;42.588;23.358;2023-04-01T09:27:27;89714.53;;;20.43;30.27
6395;BME280;3230;42.588;23.358;2023-04-01T09:33:23;89715.47;;;20.21;30.50
6395;BME280;3230;42.588;23.358;2023-04-01T09:41:27;89701.75;;;20.56;31.08
6395;BME280;3230;42.588;23.358;2023-04-01T09:44:19;89718.06;;;20.51;30.14
6395;BME280;3230;42.588;23.358;2023-04-01T09:47:30;89709.50;;;20.72;30.43
6395;BME280;3230;42.588;23.358;2023-04-01T09:59:08;89692.31;;;20.66;31.13
6395;BME280;3230;42.588;23.358;2023-04-01T10:17:05;89648.22;;;20.69;31.30
6395;BME280;3230;42.588;23.358;2023-04-01T10:22:21;89645.13;;;20.15;32.87
6395;BME280;3230;42.588;23.358;2023-04-01T10:25:02;89657.75;;;20.25;32.40
6395;BME280;3230;42.588;23.358;2023-04-01T10:40:55;89615.09;;;20.59;31.49
6395;BME280;3230;42.588;23.358;2023-04-01T10:54:25;89593.38;;;19.67;31.92
6395;BME280;3230;42.588;23.358;2023-04-01T11:00:08;89593.69;;;19.28;32.97
6395;BME280;3230;42.588;23.358;2023-04-01T11:28:34;89567.09;;;16.69;40.29
6395;BME280;3230;42.588;23.358;2023-04-01T11:36:45;89616.72;;;17.11;39.55
6395;BME280;3230;42.588;23.358;2023-04-01T11:42:06;89670.56;;;16.67;48.83
6395;BME280;3230;42.588;23.358;2023-04-01T11:44:39;89686.94;;;15.64;57.64
6395;BME280;3230;42.588;23.358;2023-04-01T11:47:48;89715.97;;;15.36;69.26
6395;BME280;3230;42.588;23.358;2023-04-01T11:50:24;89746.72;;;14.66;78.15
6395;BME280;3230;42.588;23.358;2023-04-01T12:03:46;89804.59;;;12.72;90.02
6395;BME280;3230;42.588;23.358;2023-04-01T12:09:03;89757.53;;;12.11;94.14
6395;BME280;3230;42.588;23.358;2023-04-01T12:28:49;89792.28;;;12.94;93.61
6395;BME280;3230;42.588;23.358;2023-04-01T12:31:59;89771.72;;;12.96;95.30
6395;BME280;3230;42.588;23.358;2023-04-01T12:35:12;89760.25;;;12.32;98.03
6395;BME280;3230;42.588;23.358;2023-04-01T12:44:16;89781.03;;;12.85;100.00
6395;BME280;3230;42.588;23.358;2023-04-01T12:47:13;89793.72;;;12.53;100.00
6395;BME280;3230;42.588;23.358;2023-04-01T12:52:28;89793.09;;;11.56;100.00
6395;BME280;3230;42.588;23.358;2023-04-01T12:57:41;89793.56;;;11.75;95.20
6395;BME280;3230;42.588;23.358;2023-04-01T13:16:31;89733.81;;;11.72;100.00
6395;BME280;3230;42.588;23.358;2023-04-01T13:19:13;89713.00;;;11.67;100.00
6395;BME280;3230;42.588;23.358;2023-04-01T13:35:04;89695.41;;;12.84;100.00
6395;BME280;3230;42.588;23.358;2023-04-01T13:42:58;89680.91;;;13.41;99.41
6395;BME280;3230;42.588;23.358;2023-04-01T13:45:33;89685.94;;;13.25;94.75
6395;BME280;3230;42.588;23.358;2023-04-01T13:51:26;89689.47;;;13.71;88.36
6395;BME280;3230;42.588;23.358;2023-04-01T13:57:23;89695.38;;;14.14;87.74
6395;BME280;3230;42.588;23.358;2023-04-01T14:02:51;89668.03;;;13.61;79.30
6395;BME280;3230;42.588;23.358;2023-04-01T14:14:04;89664.34;;;13.40;81.78
6395;BME280;3230;42.588;23.358;2023-04-01T14:16:48;89652.41;;;13.22;78.26
6395;BME280;3230;42.588;23.358;2023-04-01T14:19:44;89646.41;;;13.21;73.41
6395;BME280;3230;42.588;23.358;2023-04-01T14:25:30;89626.31;;;13.38;72.98
6395;BME280;3230;42.588;23.358;2023-04-01T14:34:11;89619.72;;;13.10;68.10
6395;BME280;3230;42.588;23.358;2023-04-01T14:44:37;89614.94;;;13.25;68.04
6395;BME280;3230;42.588;23.358;2023-04-01T14:47:15;89605.78;;;13.31;64.80
6395;BME280;3230;42.588;23.358;2023-04-01T14:49:51;89605.28;;;13.17;67.50
6395;BME280;3230;42.588;23.358;2023-04-01T14:52:35;89611.06;;;13.10;67.84
6395;BME280;3230;42.588;23.358;2023-04-01T14:55:15;89624.78;;;13.16;68.74
6395;BME280;3230;42.588;23.358;2023-04-01T14:57:58;89625.91;;;13.27;69.80
6395;BME280;3230;42.588;23.358;2023-04-01T15:00:24;89618.25;;;13.34;68.19
6395;BME280;3230;42.588;23.358;2023-04-01T15:02:59;89614.53;;;13.69;68.79
6395;BME280;3230;42.588;23.358;2023-04-01T15:06:27;89612.91;;;13.77;66.82
6395;BME280;3230;42.588;23.358;2023-04-01T15:14:15;89640.78;;;13.90;78.46
6395;BME280;3230;42.588;23.358;2023-04-01T15:30:24;89666.34;;;13.01;79.15
6395;BME280;3230;42.588;23.358;2023-04-01T15:35:57;89679.25;;;12.94;71.99
6395;BME280;3230;42.588;23.358;2023-04-01T15:41:22;89666.03;;;13.03;70.87
6395;BME280;3230;42.588;23.358;2023-04-01T15:43:49;89672.94;;;13.07;69.24
6395;BME280;3230;42.588;23.358;2023-04-01T15:52:03;89664.84;;;13.12;71.60
6395;BME280;3230;42.588;23.358;2023-04-01T16:00:18;89784.59;;;11.76;80.19
6395;BME280;3230;42.588;23.358;2023-04-01T16:13:55;89811.06;;;8.46;100.00
6395;BME280;3230;42.588;23.358;2023-04-01T16:19:24;89807.41;;;8.00;100.00
6395;BME280;3230;42.588;23.358;2023-04-01T16:24:38;89826.19;;;7.69;100.00
6395;BME280;3230;42.588;23.358;2023-04-01T16:27:11;89827.53;;;7.66;100.00
6395;BME280;3230;42.588;23.358;2023-04-01T16:29:46;89823.75;;;7.59;100.00
6395;BME280;3230;42.588;23.358;2023-04-01T16:32:31;89839.47;;;7.53;100.00
6395;BME280;3230;42.588;23.358;2023-04-01T16:37:46;89834.66;;;7.61;100.00
6395;BME280;3230;42.588;23.358;2023-04-01T16:43:24;89825.84;;;7.76;100.00
6395;BME280;3230;42.588;23.358;2023-04-01T16:46:26;89828.44;;;7.76;100.00
6395;BME280;3230;42.588;23.358;2023-04-01T17:11:19;89826.66;;;7.19;100.00
6395;BME280;3230;42.588;23.358;2023-04-01T17:14:04;89830.84;;;7.20;100.00
6395;BME280;3230;42.588;23.358;2023-04-01T17:29:58;89890.41;;;7.08;99.57
6395;BME280;3230;42.588;23.358;2023-04-01T17:35:26;89896.50;;;7.17;96.31
6395;BME280;3230;42.588;23.358;2023-04-01T17:41:24;89908.56;;;7.13;97.94
6395;BME280;3230;42.588;23.358;2023-04-01T17:46:50;89914.94;;;7.01;99.06
6395;BME280;3230;42.588;23.358;2023-04-01T17:54:45;89926.31;;;6.86;100.00
6395;BME280;3230;42.588;23.358;2023-04-01T18:02:47;89938.41;;;6.77;100.00
6395;BME280;3230;42.588;23.358;2023-04-01T18:19:08;89979.81;;;6.74;100.00
6395;BME280;3230;42.588;23.358;2023-04-01T18:21:48;89970.53;;;6.62;100.00
6395;BME280;3230;42.588;23.358;2023-04-01T18:24:42;89973.63;;;6.40;100.00
6395;BME280;3230;42.588;23.358;2023-04-01T18:29:54;89972.41;;;6.27;100.00
6395;BME280;3230;42.588;23.358;2023-04-01T18:38:04;89967.66;;;6.34;99.83
6395;BME280;3230;42.588;23.358;2023-04-01T18:49:52;89964.47;;;6.43;98.01
6395;BME280;3230;42.588;23.358;2023-04-01T18:52:52;89971.59;;;6.61;97.27
6395;BME280;3230;42.588;23.358;2023-04-01T18:55:40;89979.03;;;6.44;97.32
6395;BME280;3230;42.588;23.358;2023-04-01T19:06:30;89997.03;;;6.40;98.75
6395;BME280;3230;42.588;23.358;2023-04-01T19:09:12;90005.56;;;6.11;100.00
6395;BME280;3230;42.588;23.358;2023-04-01T19:11:54;90010.44;;;6.23;98.09
6395;BME280;3230;42.588;23.358;2023-04-01T19:28:15;90022.44;;;6.19;100.00
6395;BME280;3230;42.588;23.358;2023-04-01T19:33:37;90041.59;;;6.33;98.41
6395;BME280;3230;42.588;23.358;2023-04-01T19:46:53;90063.31;;;6.48;100.00
6395;BME280;3230;42.588;23.358;2023-04-01T19:52:22;90071.34;;;6.51;98.67
6395;BME280;3230;42.588;23.358;2023-04-01T19:57:41;90085.44;;;6.50;96.80
6395;BME280;3230;42.588;23.358;2023-04-01T20:00:34;90084.13;;;6.53;96.74
6395;BME280;3230;42.588;23.358;2023-04-01T20:05:58;90088.28;;;6.49;98.79
6395;BME280;3230;42.588;23.358;2023-04-01T20:08:43;90085.66;;;6.54;97.63
6395;BME280;3230;42.588;23.358;2023-04-01T20:11:34;90090.84;;;6.59;96.50
6395;BME280;3230;42.588;23.358;2023-04-01T20:14:26;90091.94;;;6.48;96.76
6395;BME280;3230;42.588;23.358;2023-04-01T20:19:42;90078.91;;;6.53;95.39
6395;BME280;3230;42.588;23.358;2023-04-01T20:22:30;90088.53;;;6.52;94.96
6395;BME280;3230;42.588;23.358;2023-04-01T20:25:05;90089.16;;;6.39;96.25
6395;BME280;3230;42.588;23.358;2023-04-01T20:27:40;90088.78;;;6.16;97.85
6395;BME280;3230;42.588;23.358;2023-04-01T20:36:11;90092.19;;;6.06;93.87
6395;BME280;3230;42.588;23.358;2023-04-01T20:53:28;90100.75;;;6.12;89.89
6395;BME280;3230;42.588;23.358;2023-04-01T20:56:35;90100.47;;;6.19;90.43
6395;BME280;3230;42.588;23.358;2023-04-01T20:59:22;90092.69;;;6.14;90.81
6395;BME280;3230;42.588;23.358;2023-04-01T21:01:52;90107.00;;;6.16;90.71
6395;BME280;3230;42.588;23.358;2023-04-01T21:07:04;90102.00;;;6.25;89.36
6395;BME280;3230;42.588;23.358;2023-04-01T21:12:28;90109.81;;;6.25;87.90
6395;BME280;3230;42.588;23.358;2023-04-01T21:20:58;90109.53;;;6.27;87.19
6395;BME280;3230;42.588;23.358;2023-04-01T21:23:35;90118.66;;;6.24;87.82
6395;BME280;3230;42.588;23.358;2023-04-01T21:26:10;90113.16;;;6.26;87.25
6395;BME280;3230;42.588;23.358;2023-04-01T21:31:24;90128.97;;;6.34;86.96
6395;BME280;3230;42.588;23.358;2023-04-01T21:34:07;90127.09;;;6.50;86.84
6395;BME280;3230;42.588;23.358;2023-04-01T21:48:12;90132.47;;;6.19;89.45
6395;BME280;3230;42.588;23.358;2023-04-01T22:01:58;90126.00;;;6.12;91.57
6395;BME280;3230;42.588;23.358;2023-04-01T22:10:39;90131.75;;;5.93;91.44
6395;BME280;3230;42.588;23.358;2023-04-01T22:13:09;90121.16;;;5.84;92.04
6395;BME280;3230;42.588;23.358;2023-04-01T22:18:29;90123.34;;;5.62;94.64
6395;BME280;3230;42.588;23.358;2023-04-01T22:23:47;90125.13;;;5.71;92.76
6395;BME280;3230;42.588;23.358;2023-04-01T22:29:21;90131.31;;;5.81;93.16
6395;BME280;3230;42.588;23.358;2023-04-01T22:32:22;90133.44;;;5.68;94.52
6395;BME280;3230;42.588;23.358;2023-04-01T22:35:13;90138.66;;;5.63;94.89
6395;BME280;3230;42.588;23.358;2023-04-01T22:42:57;90136.13;;;5.42;95.65
6395;BME280;3230;42.588;23.358;2023-04-01T22:51:18;90125.50;;;5.23;96.38
6395;BME280;3230;42.588;23.358;2023-04-01T22:56:40;90155.34;;;5.26;96.85
6395;BME280;3230;42.588;23.358;2023-04-01T22:59:16;90149.38;;;5.31;96.11
6395;BME280;3230;42.588;23.358;2023-04-01T23:01:52;90150.13;;;5.41;94.80
6395;BME280;3230;42.588;23.358;2023-04-01T23:04:24;90132.75;;;5.37;96.17
6395;BME280;3230;42.588;23.358;2023-04-01T23:06:56;90146.28;;;5.28;95.94
6395;BME280;3230;42.588;23.358;2023-04-01T23:09:34;90135.63;;;5.25;96.42
6395;BME280;3230;42.588;23.358;2023-04-01T23:12:07;90142.94;;;5.02;96.92
6395;BME280;3230;42.588;23.358;2023-04-01T23:14:36;90147.34;;;4.96;98.01
6395;BME280;3230;42.588;23.358;2023-04-01T23:24:50;90140.09;;;4.57;100.00
6395;BME280;3230;42.588;23.358;2023-04-01T23:27:28;90142.94;;;4.51;100.00
6395;BME280;3230;42.588;23.358;2023-04-01T23:29:56;90154.34;;;4.55;100.00
6395;BME280;3230;42.588;23.358;2023-04-01T23:32:23;90136.69;;;4.41;100.00
6395;BME280;3230;42.588;23.358;2023-04-01T23:34:53;90149.66;;;4.52;100.00
6395;BME280;3230;42.588;23.358;2023-04-01T23:37:21;90159.78;;;4.48;99.88
6395;BME280;3230;42.588;23.358;2023-04-01T23:39:52;90152.25;;;4.36;100.00
6395;BME280;3230;42.588;23.358;2023-04-01T23:42:31;90162.63;;;4.46;99.42